sensor_id;sensor_type;location;lat;lon;timestamp;pressure;altitude;pressure_sealevel;temperature
69785;BMP280;14177;51.520;6.764;2023-10-13T00:01:38;101009.91;;;18.32
69785;BMP280;14177;51.520;6.764;2023-10-13T00:04:05;101011.53;;;18.34
69785;BMP280;14177;51.520;6.764;2023-10-13T00:06:33;101014.97;;;18.34
69785;BMP280;14177;51.520;6.764;2023-10-13T00:08:59;101006.25;;;18.34
69785;BMP280;14177;51.520;6.764;2023-10-13T00:11:26;101004.56;;;18.33
69785;BMP280;14177;51.520;6.764;2023-10-13T00:13:53;101000.16;;;18.33
69785;BMP280;14177;51.520;6.764;2023-10-13T00:16:22;100993.19;;;18.33
69785;BMP280;14177;51.520;6.764;2023-10-13T00:18:51;100994.69;;;18.36
69785;BMP280;14177;51.520;6.764;2023-10-13T00:21:21;100993.00;;;18.35
69785;BMP280;14177;51.520;6.764;2023-10-13T00:24:02;100986.91;;;18.35
69785;BMP280;14177;51.520;6.764;2023-10-13T00:26:34;100981.72;;;18.33
69785;BMP280;14177;51.520;6.764;2023-10-13T00:29:04;100986.06;;;18.34
69785;BMP280;14177;51.520;6.764;2023-10-13T00:31:36;100970.28;;;18.34
69785;BMP280;14177;51.520;6.764;2023-10-13T00:34:05;100982.50;;;18.35
69785;BMP280;14177;51.520;6.764;2023-10-13T00:36:40;100967.75;;;18.33
69785;BMP280;14177;51.520;6.764;2023-10-13T00:39:26;100966.06;;;18.32
69785;BMP280;14177;51.520;6.764;2023-10-13T00:41:55;100970.28;;;18.34
69785;BMP280;14177;51.520;6.764;2023-10-13T00:44:33;100963.25;;;18.35
69785;BMP280;14177;51.520;6.764;2023-10-13T00:47:12;100965.88;;;18.35
69785;BMP280;14177;51.520;6.764;2023-10-13T00:49:49;100961.56;;;18.34
69785;BMP280;14177;51.520;6.764;2023-10-13T00:52:18;100960.50;;;18.36
69785;BMP280;14177;51.520;6.764;2023-10-13T00:54:46;100958.81;;;18.35
69785;BMP280;14177;51.520;6.764;2023-10-13T00:57:15;100948.47;;;18.33
69785;BMP280;14177;51.520;6.764;2023-10-13T00:59:57;100945.03;;;18.32
69785;BMP280;14177;51.520;6.764;2023-10-13T01:02:24;100946.78;;;18.32
69785;BMP280;14177;51.520;6.764;2023-10-13T01:05:07;100937.22;;;18.31
69785;BMP280;14177;51.520;6.764;2023-10-13T01:07:47;100937.03;;;18.33
69785;BMP280;14177;51.520;6.764;2023-10-13T01:10:21;100937.97;;;18.33
69785;BMP280;14177;51.520;6.764;2023-10-13T01:12:54;100934.56;;;18.31
69785;BMP280;14177;51.520;6.764;2023-10-13T01:15:21;100928.69;;;18.27
69785;BMP280;14177;51.520;6.764;2023-10-13T01:17:49;100929.75;;;18.23
69785;BMP280;14177;51.520;6.764;2023-10-13T01:20:16;100932.47;;;18.22
69785;BMP280;14177;51.520;6.764;2023-10-13T01:22:53;100922.81;;;18.22
69785;BMP280;14177;51.520;6.764;2023-10-13T01:25:24;100927.13;;;18.23
69785;BMP280;14177;51.520;6.764;2023-10-13T01:27:55;100927.75;;;18.28
69785;BMP280;14177;51.520;6.764;2023-10-13T01:30:24;100918.63;;;18.33
69785;BMP280;14177;51.520;6.764;2023-10-13T01:32:53;100916.84;;;18.34
69785;BMP280;14177;51.520;6.764;2023-10-13T01:35:27;100904.66;;;18.33
69785;BMP280;14177;51.520;6.764;2023-10-13T01:38:03;100909.03;;;18.33
69785;BMP280;14177;51.520;6.764;2023-10-13T01:40:30;100914.41;;;18.31
69785;BMP280;14177;51.520;6.764;2023-10-13T01:43:01;100904.81;;;18.30
69785;BMP280;14177;51.520;6.764;2023-10-13T01:45:30;100898.53;;;18.33
69785;BMP280;14177;51.520;6.764;2023-10-13T01:47:57;100898.34;;;18.35
69785;BMP280;14177;51.520;6.764;2023-10-13T01:50:24;100886.13;;;18.34
69785;BMP280;14177;51.520;6.764;2023-10-13T01:52:56;100885.94;;;18.37
69785;BMP280;14177;51.520;6.764;2023-10-13T01:55:41;100887.44;;;18.41
69785;BMP280;14177;51.520;6.764;2023-10-13T01:58:13;100890.00;;;18.43
69785;BMP280;14177;51.520;6.764;2023-10-13T02:00:46;100874.28;;;18.41
69785;BMP280;14177;51.520;6.764;2023-10-13T02:03:15;100878.06;;;18.37
69785;BMP280;14177;51.520;6.764;2023-10-13T02:05:44;100871.22;;;18.35
69785;BMP280;14177;51.520;6.764;2023-10-13T02:08:19;100869.41;;;18.35
69785;BMP280;14177;51.520;6.764;2023-10-13T02:10:55;100865.09;;;18.34
69785;BMP280;14177;51.520;6.764;2023-10-13T02:13:24;100866.03;;;18.33
69785;BMP280;14177;51.520;6.764;2023-10-13T02:15:57;100856.56;;;18.31
69785;BMP280;14177;51.520;6.764;2023-10-13T02:18:25;100846.13;;;18.30
69785;BMP280;14177;51.520;6.764;2023-10-13T02:21:03;100844.53;;;18.27
69785;BMP280;14177;51.520;6.764;2023-10-13T02:23:31;100835.09;;;18.23
69785;BMP280;14177;51.520;6.764;2023-10-13T02:26:01;100837.81;;;18.22
69785;BMP280;14177;51.520;6.764;2023-10-13T02:28:30;100837.09;;;18.20
69785;BMP280;14177;51.520;6.764;2023-10-13T02:31:04;100840.75;;;18.17
69785;BMP280;14177;51.520;6.764;2023-10-13T02:33:34;100839.91;;;18.17
69785;BMP280;14177;51.520;6.764;2023-10-13T02:36:03;100839.03;;;18.16
69785;BMP280;14177;51.520;6.764;2023-10-13T02:38:32;100828.53;;;18.16
69785;BMP280;14177;51.520;6.764;2023-10-13T02:41:19;100831.09;;;18.18
69785;BMP280;14177;51.520;6.764;2023-10-13T02:43:54;100825.81;;;18.18
69785;BMP280;14177;51.520;6.764;2023-10-13T02:46:23;100823.09;;;18.19
69785;BMP280;14177;51.520;6.764;2023-10-13T02:48:55;100815.31;;;18.18
69785;BMP280;14177;51.520;6.764;2023-10-13T02:51:24;100812.00;;;18.14
69785;BMP280;14177;51.520;6.764;2023-10-13T02:54:04;100814.81;;;18.11
69785;BMP280;14177;51.520;6.764;2023-10-13T02:56:40;100809.84;;;18.07
69785;BMP280;14177;51.520;6.764;2023-10-13T02:59:27;100802.22;;;18.02
69785;BMP280;14177;51.520;6.764;2023-10-13T03:02:02;100796.41;;;17.97
69785;BMP280;14177;51.520;6.764;2023-10-13T03:04:52;100800.09;;;17.95
69785;BMP280;14177;51.520;6.764;2023-10-13T03:07:27;100799.31;;;17.93
69785;BMP280;14177;51.520;6.764;2023-10-13T03:09:59;100800.34;;;17.90
69785;BMP280;14177;51.520;6.764;2023-10-13T03:12:38;100787.38;;;17.87
69785;BMP280;14177;51.520;6.764;2023-10-13T03:15:07;100784.75;;;17.87
69785;BMP280;14177;51.520;6.764;2023-10-13T03:17:44;100782.25;;;17.86
69785;BMP280;14177;51.520;6.764;2023-10-13T03:20:14;100766.66;;;17.83
69785;BMP280;14177;51.520;6.764;2023-10-13T03:22:43;100777.16;;;17.83
69785;BMP280;14177;51.520;6.764;2023-10-13T03:25:14;100768.53;;;17.81
69785;BMP280;14177;51.520;6.764;2023-10-13T03:27:58;100761.50;;;17.81
69785;BMP280;14177;51.520;6.764;2023-10-13T03:30:29;100761.59;;;17.80
69785;BMP280;14177;51.520;6.764;2023-10-13T03:33:04;100759.91;;;17.79
69785;BMP280;14177;51.520;6.764;2023-10-13T03:35:40;100758.22;;;17.78
69785;BMP280;14177;51.520;6.764;2023-10-13T03:38:09;100752.19;;;17.76
69785;BMP280;14177;51.520;6.764;2023-10-13T03:40:48;100750.50;;;17.75
69785;BMP280;14177;51.520;6.764;2023-10-13T03:43:15;100738.31;;;17.74
69785;BMP280;14177;51.520;6.764;2023-10-13T03:45:50;100736.63;;;17.73
69785;BMP280;14177;51.520;6.764;2023-10-13T03:48:28;100727.06;;;17.72
69785;BMP280;14177;51.520;6.764;2023-10-13T03:50:59;100724.53;;;17.70
69785;BMP280;14177;51.520;6.764;2023-10-13T03:53:42;100729.78;;;17.70
69785;BMP280;14177;51.520;6.764;2023-10-13T03:56:28;100715.97;;;17.67
69785;BMP280;14177;51.520;6.764;2023-10-13T03:59:00;100712.53;;;17.66
69785;BMP280;14177;51.520;6.764;2023-10-13T04:01:31;100709.91;;;17.66
69785;BMP280;14177;51.520;6.764;2023-10-13T04:03:59;100704.72;;;17.65
69785;BMP280;14177;51.520;6.764;2023-10-13T04:06:31;100703.78;;;17.66
69785;BMP280;14177;51.520;6.764;2023-10-13T04:09:22;100701.91;;;17.68
69785;BMP280;14177;51.520;6.764;2023-10-13T04:12:01;100698.44;;;17.67
69785;BMP280;14177;51.520;6.764;2023-10-13T04:14:39;100686.16;;;17.68
69785;BMP280;14177;51.520;6.764;2023-10-13T04:17:25;100680.06;;;17.67
69785;BMP280;14177;51.520;6.764;2023-10-13T04:19:58;100679.19;;;17.67
69785;BMP280;14177;51.520;6.764;2023-10-13T04:22:40;100672.19;;;17.67
69785;BMP280;14177;51.520;6.764;2023-10-13T04:28:06;100667.13;;;17.64
69785;BMP280;14177;51.520;6.764;2023-10-13T04:30:50;100656.69;;;17.63
69785;BMP280;14177;51.520;6.764;2023-10-13T04:33:32;100653.31;;;17.61
69785;BMP280;14177;51.520;6.764;2023-10-13T04:38:45;100645.25;;;17.64
69785;BMP280;14177;51.520;6.764;2023-10-13T04:41:40;100644.41;;;17.63
69785;BMP280;14177;51.520;6.764;2023-10-13T04:44:17;100643.47;;;17.64
69785;BMP280;14177;51.520;6.764;2023-10-13T04:47:02;100641.69;;;17.65
69785;BMP280;14177;51.520;6.764;2023-10-13T04:49:32;100639.16;;;17.63
69785;BMP280;14177;51.520;6.764;2023-10-13T04:52:17;100631.28;;;17.63
69785;BMP280;14177;51.520;6.764;2023-10-13T04:55:06;100623.41;;;17.63
69785;BMP280;14177;51.520;6.764;2023-10-13T04:58:10;100623.28;;;17.65
69785;BMP280;14177;51.520;6.764;2023-10-13T05:00:41;100604.91;;;17.65
69785;BMP280;14177;51.520;6.764;2023-10-13T05:03:43;100603.22;;;17.64
69785;BMP280;14177;51.520;6.764;2023-10-13T05:06:29;100599.66;;;17.65
69785;BMP280;14177;51.520;6.764;2023-10-13T05:09:09;100593.56;;;17.64
69785;BMP280;14177;51.520;6.764;2023-10-13T05:11:54;100591.78;;;17.65
69785;BMP280;14177;51.520;6.764;2023-10-13T05:14:40;100582.00;;;17.67
69785;BMP280;14177;51.520;6.764;2023-10-13T05:17:25;100582.00;;;17.67
69785;BMP280;14177;51.520;6.764;2023-10-13T05:20:11;100580.13;;;17.69
69785;BMP280;14177;51.520;6.764;2023-10-13T05:22:56;100574.13;;;17.67
69785;BMP280;14177;51.520;6.764;2023-10-13T05:25:42;100580.13;;;17.69
69785;BMP280;14177;51.520;6.764;2023-10-13T05:28:27;100582.69;;;17.70
69785;BMP280;14177;51.520;6.764;2023-10-13T05:31:13;100592.13;;;17.73
69785;BMP280;14177;51.520;6.764;2023-10-13T05:33:59;100578.94;;;17.74
69785;BMP280;14177;51.520;6.764;2023-10-13T05:36:44;100581.44;;;17.76
69785;BMP280;14177;51.520;6.764;2023-10-13T05:39:30;100590.06;;;17.78
69785;BMP280;14177;51.520;6.764;2023-10-13T05:42:15;100593.38;;;17.81
69785;BMP280;14177;51.520;6.764;2023-10-13T05:45:01;100601.25;;;17.81
69785;BMP280;14177;51.520;6.764;2023-10-13T05:47:51;100600.38;;;17.81
69785;BMP280;14177;51.520;6.764;2023-10-13T05:50:29;100606.31;;;17.84
69785;BMP280;14177;51.520;6.764;2023-10-13T05:53:16;100604.41;;;17.86
69785;BMP280;14177;51.520;6.764;2023-10-13T05:56:01;100611.34;;;17.87
69785;BMP280;14177;51.520;6.764;2023-10-13T05:58:47;100605.69;;;17.93
69785;BMP280;14177;51.520;6.764;2023-10-13T06:01:33;100604.69;;;17.96
69785;BMP280;14177;51.520;6.764;2023-10-13T06:04:18;100592.28;;;17.98
69785;BMP280;14177;51.520;6.764;2023-10-13T06:07:03;100595.66;;;18.00
69785;BMP280;14177;51.520;6.764;2023-10-13T06:09:49;100582.22;;;18.04
69785;BMP280;14177;51.520;6.764;2023-10-13T06:12:37;100564.56;;;18.06
69785;BMP280;14177;51.520;6.764;2023-10-13T06:15:22;100557.41;;;18.08
69785;BMP280;14177;51.520;6.764;2023-10-13T06:18:07;100548.59;;;18.09
69785;BMP280;14177;51.520;6.764;2023-10-13T06:20:53;100561.44;;;18.14
69785;BMP280;14177;51.520;6.764;2023-10-13T06:23:38;100564.81;;;18.16
69785;BMP280;14177;51.520;6.764;2023-10-13T06:26:24;100567.13;;;18.20
69785;BMP280;14177;51.520;6.764;2023-10-13T06:29:09;100570.50;;;18.22
69785;BMP280;14177;51.520;6.764;2023-10-13T06:31:36;100566.84;;;18.25
69785;BMP280;14177;51.520;6.764;2023-10-13T06:34:04;100553.72;;;18.25
69785;BMP280;14177;51.520;6.764;2023-10-13T06:36:31;100546.56;;;18.27
69785;BMP280;14177;51.520;6.764;2023-10-13T06:39:00;100543.75;;;18.30
69785;BMP280;14177;51.520;6.764;2023-10-13T06:41:45;100543.75;;;18.30
69785;BMP280;14177;51.520;6.764;2023-10-13T06:44:13;100539.22;;;18.32
69785;BMP280;14177;51.520;6.764;2023-10-13T06:46:43;100536.59;;;18.32
69785;BMP280;14177;51.520;6.764;2023-10-13T06:49:11;100539.03;;;18.34
69785;BMP280;14177;51.520;6.764;2023-10-13T06:51:40;100545.75;;;18.38
69785;BMP280;14177;51.520;6.764;2023-10-13T06:54:07;100540.31;;;18.41
69785;BMP280;14177;51.520;6.764;2023-10-13T06:56:46;100541.03;;;18.43
69785;BMP280;14177;51.520;6.764;2023-10-13T06:59:13;100544.41;;;18.45
69785;BMP280;14177;51.520;6.764;2023-10-13T07:01:43;100546.84;;;18.48
69785;BMP280;14177;51.520;6.764;2023-10-13T07:04:11;100539.59;;;18.52
69785;BMP280;14177;51.520;6.764;2023-10-13T07:06:43;100548.84;;;18.57
69785;BMP280;14177;51.520;6.764;2023-10-13T07:09:16;100549.41;;;18.62
69785;BMP280;14177;51.520;6.764;2023-10-13T07:12:04;100548.25;;;18.66
69785;BMP280;14177;51.520;6.764;2023-10-13T07:14:48;100545.19;;;18.72
69785;BMP280;14177;51.520;6.764;2023-10-13T07:17:20;100542.44;;;18.74
69785;BMP280;14177;51.520;6.764;2023-10-13T07:19:54;100536.03;;;18.78
69785;BMP280;14177;51.520;6.764;2023-10-13T07:22:26;100534.25;;;18.78
69785;BMP280;14177;51.520;6.764;2023-10-13T07:24:55;100530.69;;;18.79
69785;BMP280;14177;51.520;6.764;2023-10-13T07:27:25;100523.31;;;18.84
69785;BMP280;14177;51.520;6.764;2023-10-13T07:29:55;100524.88;;;18.87
69785;BMP280;14177;51.520;6.764;2023-10-13T07:32:41;100519.53;;;18.88
69785;BMP280;14177;51.520;6.764;2023-10-13T07:35:19;100520.88;;;18.94
69785;BMP280;14177;51.520;6.764;2023-10-13T07:37:47;100512.66;;;18.98
69785;BMP280;14177;51.520;6.764;2023-10-13T07:40:21;100511.41;;;19.04
69785;BMP280;14177;51.520;6.764;2023-10-13T07:42:55;100506.75;;;19.07
69785;BMP280;14177;51.520;6.764;2023-10-13T07:45:30;100511.72;;;19.12
69785;BMP280;14177;51.520;6.764;2023-10-13T07:48:05;100511.41;;;19.16
69785;BMP280;14177;51.520;6.764;2023-10-13T07:50:43;100512.25;;;19.29
69785;BMP280;14177;51.520;6.764;2023-10-13T07:53:12;100509.47;;;19.43
69785;BMP280;14177;51.520;6.764;2023-10-13T07:55:46;100509.22;;;19.58
69785;BMP280;14177;51.520;6.764;2023-10-13T07:58:14;100502.84;;;19.73
69785;BMP280;14177;51.520;6.764;2023-10-13T08:00:41;100504.19;;;19.79
69785;BMP280;14177;51.520;6.764;2023-10-13T08:03:08;100506.50;;;19.83
69785;BMP280;14177;51.520;6.764;2023-10-13T08:05:51;100490.69;;;19.83
69785;BMP280;14177;51.520;6.764;2023-10-13T08:08:38;100494.06;;;19.85
69785;BMP280;14177;51.520;6.764;2023-10-13T08:11:07;100479.56;;;19.91
69785;BMP280;14177;51.520;6.764;2023-10-13T08:13:54;100479.31;;;20.06
69785;BMP280;14177;51.520;6.764;2023-10-13T08:16:39;100474.47;;;20.24
69785;BMP280;14177;51.520;6.764;2023-10-13T08:19:24;100470.00;;;20.59
69785;BMP280;14177;51.520;6.764;2023-10-13T08:21:59;100473.44;;;20.83
69785;BMP280;14177;51.520;6.764;2023-10-13T08:24:27;100460.72;;;21.09
69785;BMP280;14177;51.520;6.764;2023-10-13T08:27:08;100458.25;;;21.39
69785;BMP280;14177;51.520;6.764;2023-10-13T08:29:53;100462.44;;;21.53
69785;BMP280;14177;51.520;6.764;2023-10-13T08:32:40;100448.00;;;21.68
69785;BMP280;14177;51.520;6.764;2023-10-13T08:35:21;100442.97;;;21.65
69785;BMP280;14177;51.520;6.764;2023-10-13T08:37:57;100446.59;;;21.64
69785;BMP280;14177;51.520;6.764;2023-10-13T08:40:37;100440.44;;;21.74
69785;BMP280;14177;51.520;6.764;2023-10-13T08:43:42;100428.00;;;21.86
69785;BMP280;14177;51.520;6.764;2023-10-13T08:46:19;100432.41;;;21.96
69785;BMP280;14177;51.520;6.764;2023-10-13T08:49:00;100437.13;;;22.13
69785;BMP280;14177;51.520;6.764;2023-10-13T08:51:43;100424.56;;;22.26
69785;BMP280;14177;51.520;6.764;2023-10-13T08:54:15;100423.44;;;22.28
69785;BMP280;14177;51.520;6.764;2023-10-13T08:56:47;100412.00;;;22.39
69785;BMP280;14177;51.520;6.764;2023-10-13T08:59:24;100421.88;;;22.37
69785;BMP280;14177;51.520;6.764;2023-10-13T09:02:14;100409.38;;;22.39
69785;BMP280;14177;51.520;6.764;2023-10-13T09:04:46;100405.53;;;22.52
69785;BMP280;14177;51.520;6.764;2023-10-13T09:07:14;100399.50;;;22.41
69785;BMP280;14177;51.520;6.764;2023-10-13T09:09:50;100405.31;;;22.35
69785;BMP280;14177;51.520;6.764;2023-10-13T09:12:29;100403.38;;;22.37
69785;BMP280;14177;51.520;6.764;2023-10-13T09:15:02;100398.78;;;22.39
69785;BMP280;14177;51.520;6.764;2023-10-13T09:17:49;100393.53;;;22.48
69785;BMP280;14177;51.520;6.764;2023-10-13T09:20:31;100385.28;;;22.72
69785;BMP280;14177;51.520;6.764;2023-10-13T09:23:21;100382.00;;;22.89
69785;BMP280;14177;51.520;6.764;2023-10-13T09:25:52;100395.59;;;23.05
69785;BMP280;14177;51.520;6.764;2023-10-13T09:28:28;100381.50;;;23.04
69785;BMP280;14177;51.520;6.764;2023-10-13T09:30:56;100381.41;;;23.15
69785;BMP280;14177;51.520;6.764;2023-10-13T09:33:29;100378.25;;;23.40
69785;BMP280;14177;51.520;6.764;2023-10-13T09:36:17;100368.38;;;23.42
69785;BMP280;14177;51.520;6.764;2023-10-13T09:38:45;100367.34;;;23.34
69785;BMP280;14177;51.520;6.764;2023-10-13T09:41:32;100366.25;;;23.27
69785;BMP280;14177;51.520;6.764;2023-10-13T09:43:59;100368.91;;;23.36
69785;BMP280;14177;51.520;6.764;2023-10-13T09:46:27;100364.31;;;23.47
69785;BMP280;14177;51.520;6.764;2023-10-13T09:49:13;100359.72;;;23.49
69785;BMP280;14177;51.520;6.764;2023-10-13T09:51:50;100348.97;;;23.51
69785;BMP280;14177;51.520;6.764;2023-10-13T09:54:35;100337.53;;;23.69
69785;BMP280;14177;51.520;6.764;2023-10-13T09:57:21;100342.00;;;23.78
69785;BMP280;14177;51.520;6.764;2023-10-13T09:59:56;100350.13;;;23.86
69785;BMP280;14177;51.520;6.764;2023-10-13T10:02:37;100356.47;;;24.12
69785;BMP280;14177;51.520;6.764;2023-10-13T10:05:10;100346.16;;;24.09
69785;BMP280;14177;51.520;6.764;2023-10-13T10:07:56;100343.94;;;24.05
69785;BMP280;14177;51.520;6.764;2023-10-13T10:13:52;100339.34;;;23.78
69785;BMP280;14177;51.520;6.764;2023-10-13T10:19:29;100325.09;;;23.70
69785;BMP280;14177;51.520;6.764;2023-10-13T10:22:04;100328.63;;;23.89
69785;BMP280;14177;51.520;6.764;2023-10-13T10:25:01;100326.78;;;23.90
69785;BMP280;14177;51.520;6.764;2023-10-13T10:27:33;100333.22;;;23.87
69785;BMP280;14177;51.520;6.764;2023-10-13T10:30:01;100322.16;;;23.73
69785;BMP280;14177;51.520;6.764;2023-10-13T10:32:37;100320.50;;;23.62
69785;BMP280;14177;51.520;6.764;2023-10-13T10:35:10;100329.72;;;23.58
69785;BMP280;14177;51.520;6.764;2023-10-13T10:37:47;100321.50;;;23.52
69785;BMP280;14177;51.520;6.764;2023-10-13T10:40:18;100331.94;;;23.53
69785;BMP280;14177;51.520;6.764;2023-10-13T10:43:04;100311.88;;;23.51
69785;BMP280;14177;51.520;6.764;2023-10-13T10:45:56;100310.75;;;23.53
69785;BMP280;14177;51.520;6.764;2023-10-13T10:48:31;100302.38;;;23.58
69785;BMP280;14177;51.520;6.764;2023-10-13T10:51:01;100310.06;;;23.61
69785;BMP280;14177;51.520;6.764;2023-10-13T10:53:41;100301.81;;;23.64
69785;BMP280;14177;51.520;6.764;2023-10-13T10:56:14;100299.56;;;23.69
69785;BMP280;14177;51.520;6.764;2023-10-13T10:58:55;100297.19;;;23.75
69785;BMP280;14177;51.520;6.764;2023-10-13T11:01:25;100286.44;;;23.77
69785;BMP280;14177;51.520;6.764;2023-10-13T11:04:06;100283.66;;;23.78
69785;BMP280;14177;51.520;6.764;2023-10-13T11:06:49;100280.31;;;23.76
69785;BMP280;14177;51.520;6.764;2023-10-13T11:09:30;100280.31;;;23.76
69785;BMP280;14177;51.520;6.764;2023-10-13T11:14:31;100265.38;;;23.94
69785;BMP280;14177;51.520;6.764;2023-10-13T11:16:59;100261.75;;;23.95
69785;BMP280;14177;51.520;6.764;2023-10-13T11:19:42;100266.72;;;24.08
69785;BMP280;14177;51.520;6.764;2023-10-13T11:22:11;100250.22;;;24.50
69785;BMP280;14177;51.520;6.764;2023-10-13T11:24:56;100257.44;;;25.02
69785;BMP280;14177;51.520;6.764;2023-10-13T11:27:32;100238.72;;;25.38
69785;BMP280;14177;51.520;6.764;2023-10-13T11:30:24;100231.19;;;25.77
69785;BMP280;14177;51.520;6.764;2023-10-13T11:33:13;100225.09;;;26.01
69785;BMP280;14177;51.520;6.764;2023-10-13T11:35:45;100225.00;;;26.19
69785;BMP280;14177;51.520;6.764;2023-10-13T11:38:33;100220.44;;;26.37
69785;BMP280;14177;51.520;6.764;2023-10-13T11:41:16;100211.53;;;26.54
69785;BMP280;14177;51.520;6.764;2023-10-13T11:43:48;100218.53;;;26.21
69785;BMP280;14177;51.520;6.764;2023-10-13T11:46:21;100198.44;;;25.94
69785;BMP280;14177;51.520;6.764;2023-10-13T11:49:11;100208.50;;;25.65
69785;BMP280;14177;51.520;6.764;2023-10-13T11:51:49;100201.25;;;25.49
69785;BMP280;14177;51.520;6.764;2023-10-13T11:54:18;100211.91;;;25.49
69785;BMP280;14177;51.520;6.764;2023-10-13T11:56:47;100207.53;;;25.66
69785;BMP280;14177;51.520;6.764;2023-10-13T11:59:15;100210.22;;;25.74
69785;BMP280;14177;51.520;6.764;2023-10-13T12:01:45;100207.53;;;25.83
69785;BMP280;14177;51.520;6.764;2023-10-13T12:04:31;100203.34;;;25.81
69785;BMP280;14177;51.520;6.764;2023-10-13T12:07:17;100204.19;;;25.89
69785;BMP280;14177;51.520;6.764;2023-10-13T12:09:49;100191.56;;;26.16
69785;BMP280;14177;51.520;6.764;2023-10-13T12:12:30;100184.97;;;26.36
69785;BMP280;14177;51.520;6.764;2023-10-13T12:15:09;100179.28;;;26.31
69785;BMP280;14177;51.520;6.764;2023-10-13T12:17:36;100173.44;;;26.20
69785;BMP280;14177;51.520;6.764;2023-10-13T12:20:07;100191.47;;;26.00
69785;BMP280;14177;51.520;6.764;2023-10-13T12:22:38;100181.09;;;25.90
69785;BMP280;14177;51.520;6.764;2023-10-13T12:25:25;100174.00;;;25.73
69785;BMP280;14177;51.520;6.764;2023-10-13T12:28:00;100169.09;;;25.60
69785;BMP280;14177;51.520;6.764;2023-10-13T12:30:45;100166.22;;;25.54
69785;BMP280;14177;51.520;6.764;2023-10-13T12:33:16;100152.53;;;25.41
69785;BMP280;14177;51.520;6.764;2023-10-13T12:35:58;100151.69;;;25.40
69785;BMP280;14177;51.520;6.764;2023-10-13T12:38:41;100160.13;;;25.36
69785;BMP280;14177;51.520;6.764;2023-10-13T12:41:16;100143.34;;;25.35
69785;BMP280;14177;51.520;6.764;2023-10-13T12:44:04;100144.19;;;25.36
69785;BMP280;14177;51.520;6.764;2023-10-13T12:46:51;100149.50;;;25.36
69785;BMP280;14177;51.520;6.764;2023-10-13T12:49:37;100151.47;;;25.34
69785;BMP280;14177;51.520;6.764;2023-10-13T12:52:08;100148.13;;;25.32
69785;BMP280;14177;51.520;6.764;2023-10-13T12:54:54;100157.91;;;25.31
69785;BMP280;14177;51.520;6.764;2023-10-13T12:57:24;100145.94;;;25.27
69785;BMP280;14177;51.520;6.764;2023-10-13T12:59:52;100161.88;;;25.27
69785;BMP280;14177;51.520;6.764;2023-10-13T13:02:26;100159.53;;;25.24
69785;BMP280;14177;51.520;6.764;2023-10-13T13:04:55;100159.69;;;25.23
69785;BMP280;14177;51.520;6.764;2023-10-13T13:07:33;100163.03;;;25.25
69785;BMP280;14177;51.520;6.764;2023-10-13T13:10:10;100148.75;;;25.26
69785;BMP280;14177;51.520;6.764;2023-10-13T13:12:40;100146.59;;;25.29
69785;BMP280;14177;51.520;6.764;2023-10-13T13:15:08;100148.97;;;25.32
69785;BMP280;14177;51.520;6.764;2023-10-13T13:17:36;100138.03;;;25.35
69785;BMP280;14177;51.520;6.764;2023-10-13T13:20:05;100144.19;;;25.36
69785;BMP280;14177;51.520;6.764;2023-10-13T13:22:38;100139.19;;;25.33
69785;BMP280;14177;51.520;6.764;2023-10-13T13:25:06;100146.97;;;25.34
69785;BMP280;14177;51.520;6.764;2023-10-13T13:27:35;100146.16;;;25.34
69785;BMP280;14177;51.520;6.764;2023-10-13T13:30:04;100154.88;;;25.26
69785;BMP280;14177;51.520;6.764;2023-10-13T13:32:39;100146.53;;;25.21
69785;BMP280;14177;51.520;6.764;2023-10-13T13:35:08;100151.34;;;25.18
69785;BMP280;14177;51.520;6.764;2023-10-13T13:37:40;100150.88;;;25.22
69785;BMP280;14177;51.520;6.764;2023-10-13T13:40:10;100129.78;;;25.21
69785;BMP280;14177;51.520;6.764;2023-10-13T13:42:45;100145.72;;;25.21
69785;BMP280;14177;51.520;6.764;2023-10-13T13:47:50;100139.13;;;25.07
69785;BMP280;14177;51.520;6.764;2023-10-13T13:50:25;100147.84;;;25.00
69785;BMP280;14177;51.520;6.764;2023-10-13T13:52:57;100132.38;;;24.95
69785;BMP280;14177;51.520;6.764;2023-10-13T13:55:25;100133.97;;;24.88
69785;BMP280;14177;51.520;6.764;2023-10-13T13:57:57;100134.78;;;24.89
69785;BMP280;14177;51.520;6.764;2023-10-13T14:00:24;100137.63;;;24.87
69785;BMP280;14177;51.520;6.764;2023-10-13T14:03:15;100126.00;;;24.88
69785;BMP280;14177;51.520;6.764;2023-10-13T14:06:01;100109.81;;;24.82
69785;BMP280;14177;51.520;6.764;2023-10-13T14:08:28;100120.75;;;24.79
69785;BMP280;14177;51.520;6.764;2023-10-13T14:10:55;100127.38;;;24.75
69785;BMP280;14177;51.520;6.764;2023-10-13T14:13:40;100117.75;;;24.74
69785;BMP280;14177;51.520;6.764;2023-10-13T14:16:18;100119.03;;;24.70
69785;BMP280;14177;51.520;6.764;2023-10-13T14:18:48;100115.84;;;24.67
69785;BMP280;14177;51.520;6.764;2023-10-13T14:21:16;100117.28;;;24.61
69785;BMP280;14177;51.520;6.764;2023-10-13T14:23:48;100120.38;;;24.57
69785;BMP280;14177;51.520;6.764;2023-10-13T14:26:17;100118.19;;;24.52
69785;BMP280;14177;51.520;6.764;2023-10-13T14:28:48;100114.16;;;24.48
69785;BMP280;14177;51.520;6.764;2023-10-13T14:31:31;100103.44;;;24.40
69785;BMP280;14177;51.520;6.764;2023-10-13T14:33:59;100118.00;;;24.36
69785;BMP280;14177;51.520;6.764;2023-10-13T14:36:26;100124.56;;;24.32
69785;BMP280;14177;51.520;6.764;2023-10-13T14:38:56;100114.44;;;24.28
69785;BMP280;14177;51.520;6.764;2023-10-13T14:41:23;100118.19;;;24.25
69785;BMP280;14177;51.520;6.764;2023-10-13T14:43:50;100111.91;;;24.26
69785;BMP280;14177;51.520;6.764;2023-10-13T14:46:19;100120.16;;;24.23
69785;BMP280;14177;51.520;6.764;2023-10-13T14:48:52;100117.13;;;24.18
69785;BMP280;14177;51.520;6.764;2023-10-13T14:51:20;100107.47;;;24.17
69785;BMP280;14177;51.520;6.764;2023-10-13T14:53:48;100107.94;;;24.13
69785;BMP280;14177;51.520;6.764;2023-10-13T14:56:19;100102.94;;;24.10
69785;BMP280;14177;51.520;6.764;2023-10-13T14:58:46;100099.03;;;24.04
69785;BMP280;14177;51.520;6.764;2023-10-13T15:01:17;100108.00;;;24.03
69785;BMP280;14177;51.520;6.764;2023-10-13T15:03:52;100112.31;;;24.04